Terminal Aerodrome Forecast
Issued by NWS Kansas City/Pleasant Hill, MO

Home | Current Version | Previous Version | Text Only | Print | Product List | Glossary On
Versions: 1 2 3 4 5 6 7 8 9 10 11 12 13 14
026
FTUS43 KEAX 162331
TAFMCI
TAF
KMCI 162331Z 1700/1724 18008KT P6SM FEW200
     FM170900 19008KT P6SM VCSH OVC070
     FM171200 19007KT 4SM -RA BR OVC020
     FM171700 24005KT P6SM OVC020=

USA.gov is the U.S. government's official web portal to all federal, state and local government web resources and services.